ストックホルム/アーランダ の空港の天気 - METARとTAF

ストックホルム・アーランダ空港 ( ESSA / ARN ) - スウェーデン ストックホルム
飛行場実況気象(Metar)
観測時間10/23 15:20 CEST (10/23 13:20 UTC)
風向・風速東 5m/s
視程10km以上
天気現象弱い雨
全天の4割程度の雲 雲底高度 270m
全天の8割程度の雲 雲底高度 460m
気温5℃
湿度81%
気圧1025hPa
METARESSA 231320Z 08010KT 9999 -RA SCT009 BKN015 05/02 Q1025 NOSIG
過去の天気等 Google飛行場航空写真 Wunderground天気予報

過去48時間のMETAR

飛行場予報(TAF)
発表時間: 10/23 13:30 CEST (10/23 11:30 UTC)
予報対象時間: 23日14時 CEST ~ 24日14時 CEST
風向・風速北東 4m/s
視程10km以上
全天の8割程度の雲 雲底高度 1,220m
23日14時 CEST ~ 23日17時 CEST に一時的に
全天の8割程度の雲 雲底高度 430m
TAF ESSA 231130Z 2312/2412 04008KT 9999 BKN040
TEMPO 2312/2315 BKN014